createdAt,value
2023-04-15T00:04:58.082Z,0.2
2023-04-15T00:29:54.155Z,0.2
2023-04-15T03:04:16.892Z,0.2
2023-04-15T03:09:17.649Z,0.2
2023-04-15T03:14:13.903Z,0.2
2023-04-15T03:19:14.572Z,0.2
2023-04-15T03:24:14.112Z,0.2
2023-04-15T03:29:14.143Z,0.2
2023-04-15T03:34:13.435Z,0.2
2023-04-15T03:39:13.316Z,0.2
2023-04-15T03:44:12.357Z,0.2
2023-04-15T03:49:13.893Z,0.2
2023-04-15T03:54:09.617Z,0.2
2023-04-15T03:59:09.692Z,0.2
2023-04-15T04:00:56.657Z,0.2
2023-04-15T04:05:30.817Z,0.2
2023-04-15T04:10:28.800Z,0.3
2023-04-15T04:15:27.969Z,0.3
2023-04-15T04:50:27.053Z,6.7
2023-04-15T07:04:20.243Z,126.8
2023-04-15T07:09:19.420Z,147.6
2023-04-15T07:14:19.616Z,148.1
2023-04-15T07:19:17.293Z,140.4
2023-04-15T07:24:17.019Z,157
2023-04-15T07:29:16.539Z,289.2
2023-04-15T07:34:16.544Z,262
2023-04-15T07:39:16.581Z,333.4
2023-04-15T07:44:16.231Z,383.9
2023-04-15T07:49:15.719Z,431.7
2023-04-15T07:54:15.769Z,296.7
2023-04-15T07:59:17.244Z,315.6
2023-04-15T08:04:15.145Z,443.5
2023-04-15T08:09:14.894Z,382.6
2023-04-15T08:14:14.464Z,366
2023-04-15T08:19:13.876Z,433.9
2023-04-15T08:24:13.849Z,372.8
2023-04-15T08:29:13.862Z,393.9
2023-04-15T08:34:13.543Z,442.5
2023-04-15T08:39:16.033Z,498
2023-04-15T08:44:11.110Z,498.6
2023-04-15T08:49:11.704Z,437.2
2023-04-15T08:59:11.536Z,436.7
2023-04-15T09:00:59.235Z,427.9
2023-04-15T09:06:26.921Z,367.4
2023-04-15T09:10:32.353Z,274.2
2023-04-15T09:15:31.085Z,294.1
2023-04-15T09:20:31.035Z,297
2023-04-15T09:25:31.700Z,417
2023-04-15T09:30:31.656Z,362.7
2023-04-15T09:35:28.007Z,327.7
2023-04-15T09:40:27.977Z,299.3
2023-04-15T09:45:29.223Z,286.7
2023-04-15T09:50:27.006Z,287
2023-04-15T09:55:26.030Z,361.3
2023-04-15T09:59:56.046Z,448.4
2023-04-15T10:04:56.621Z,431.6
2023-04-15T10:09:54.612Z,327.7
2023-04-15T10:14:54.587Z,324.4
2023-04-15T10:19:55.758Z,348.1
2023-04-15T10:24:42.297Z,395.5
2023-04-15T10:29:41.957Z,458.2
2023-04-15T10:34:41.850Z,463.2
2023-04-15T10:39:41.552Z,491
2023-04-15T10:44:39.120Z,651.4
2023-04-15T10:49:39.152Z,727.8
2023-04-15T11:04:27.530Z,481.5
2023-04-15T11:09:26.528Z,601.4
2023-04-15T11:14:27.358Z,470
2023-04-15T11:19:26.296Z,301.5
2023-04-15T11:24:27.757Z,310.9
2023-04-15T11:29:25.031Z,463.1
2023-04-15T11:34:23.781Z,486
2023-04-15T11:39:23.660Z,512.2
2023-04-15T11:44:24.130Z,567.2
2023-04-15T11:49:23.385Z,436.9
2023-04-15T11:54:22.919Z,532.6
2023-04-15T11:59:22.945Z,575.5
2023-04-15T12:04:25.695Z,735.6
2023-04-15T12:09:20.113Z,448.2
2023-04-15T12:14:20.127Z,314.5
2023-04-15T12:19:19.618Z,585.2
2023-04-15T12:24:19.460Z,287.7
2023-04-15T12:29:17.041Z,458.6
2023-04-15T12:34:16.729Z,301.1
2023-04-15T12:39:16.149Z,401.7
2023-04-15T12:44:15.927Z,495.9
2023-04-15T12:49:15.642Z,534.1
2023-04-15T12:54:15.909Z,343.3
2023-04-15T12:59:15.424Z,301.1
2023-04-15T13:14:13.460Z,202.1
2023-04-15T13:19:12.234Z,156.1
2023-04-15T13:24:12.024Z,127.9
2023-04-15T13:29:10.664Z,131
2023-04-15T13:39:12.492Z,133.6
2023-04-15T13:44:08.694Z,140.7
2023-04-15T13:59:06.031Z,96.2
2023-04-15T14:00:52.780Z,95.9
2023-04-15T14:05:27.343Z,82.5
2023-04-15T14:10:24.814Z,73.1
2023-04-15T14:15:24.391Z,69.1
2023-04-15T14:20:27.428Z,70.2
2023-04-15T14:25:34.270Z,81.3
2023-04-15T14:30:23.185Z,89.2
2023-04-15T14:35:22.892Z,92.9
2023-04-15T14:40:23.429Z,96.8
2023-04-15T14:45:39.509Z,101.1
2023-04-15T14:50:20.421Z,104.5
2023-04-15T14:55:20.270Z,83.4
2023-04-15T14:59:42.169Z,71.4
2023-04-15T15:04:42.351Z,76.7
2023-04-15T15:09:40.521Z,81.1
2023-04-15T15:14:39.839Z,76.8
2023-04-15T15:19:40.504Z,74.4
2023-04-15T15:24:39.643Z,66.2
2023-04-15T15:34:37.129Z,71.8
2023-04-15T15:39:37.670Z,68.6
2023-04-15T15:44:36.348Z,65
2023-04-15T15:49:36.630Z,68.1
2023-04-15T15:54:34.177Z,46.8
2023-04-15T16:04:21.231Z,42
2023-04-15T16:09:20.068Z,39.4
2023-04-15T16:14:19.834Z,34.5
2023-04-15T16:19:19.400Z,36.1
2023-04-15T16:24:19.207Z,43.7
2023-04-15T16:29:19.061Z,52.3
2023-04-15T16:34:16.765Z,44.9
2023-04-15T16:39:16.618Z,41.3
2023-04-15T16:44:19.054Z,53
2023-04-15T16:49:15.672Z,48.3
2023-04-15T16:54:14.490Z,31.8
2023-04-15T16:59:14.938Z,35.4
2023-04-15T17:04:17.349Z,27.4
2023-04-15T17:09:14.416Z,29.9
2023-04-15T17:14:14.636Z,18.7
2023-04-15T17:19:11.810Z,23.8
2023-04-15T17:24:11.330Z,25.6
2023-04-15T17:29:10.374Z,28.7
2023-04-15T17:35:00.665Z,19
2023-04-15T17:39:07.880Z,15.1
2023-04-15T17:44:08.247Z,10.9
2023-04-15T17:49:07.049Z,6.3
2023-04-15T17:54:06.744Z,5.5
2023-04-15T17:59:05.941Z,4.9
2023-04-15T18:00:52.777Z,4.5
2023-04-15T18:05:26.887Z,3.6
2023-04-15T18:10:25.801Z,3.7
2023-04-15T18:20:23.821Z,3.4
2023-04-15T18:25:22.825Z,1.4
2023-04-15T18:30:22.791Z,0.7
2023-04-15T18:35:22.050Z,0.4
2023-04-15T18:40:21.564Z,0.3
2023-04-15T18:45:21.482Z,0.2
2023-04-15T18:50:20.799Z,0.2
2023-04-15T18:55:22.065Z,0.1
2023-04-15T18:59:59.644Z,0.2
2023-04-15T20:39:15.272Z,0.2
2023-04-15T21:04:09.151Z,0.2
2023-04-15T21:09:08.150Z,0.2
2023-04-15T21:14:07.718Z,0.2
2023-04-15T21:19:08.642Z,0.1
2023-04-15T21:24:04.731Z,0.2
2023-04-15T21:29:05.220Z,0.2
2023-04-15T21:34:04.755Z,0.1
2023-04-15T21:39:04.623Z,0.1
2023-04-15T21:44:01.984Z,0.1
2023-04-15T21:49:01.619Z,0.2
2023-04-15T21:54:00.627Z,0.2
2023-04-15T21:59:00.377Z,0.2
2023-04-15T22:00:47.911Z,0.1
2023-04-15T22:05:22.398Z,0.2
2023-04-15T22:10:22.086Z,0.2
2023-04-15T22:15:21.855Z,0.1
2023-04-15T22:25:19.436Z,0.2
2023-04-15T22:30:19.154Z,0.2
2023-04-15T22:40:18.841Z,0.1
2023-04-15T22:45:31.413Z,0.2
2023-04-15T22:50:16.499Z,0.1
2023-04-15T22:55:16.288Z,0.1
